Tumezi Trading Sven by Tumezi

Multi-target predictions

Latest run #34 · six horizons/hurdles (global + sector bundles each) · sorted by Mean P (all models) — average of per-model avg P (global+sector mean). Click a symbol for per-target tables and a combined summary.

DB: /app/data/predictions.db · 502 rows

Symbol Company Sector Date Mean P (all models) Pred 60d max gain 60d / 10% glob P 60d / 10% sec P 60d / 10% avg P 60d / 10% glob thr 60d / 10% sec thr 60d / 10% avg thr
BLDR Builders FirstSource industrials 2026-08-26 0.9106 +14.9% 0.9812 0.8399 0.9106 0.383 0.512 0.447
FICO Fair Isaac information_technology 2026-08-26 0.7973 +15.0% 0.7714 0.8233 0.7973 0.383 0.315 0.349
TTD Trade Desk (The) communication_services 2026-08-26 0.7969 +16.3% 0.9527 0.6410 0.7969 0.383 0.203 0.293
TMUS T-Mobile US communication_services 2026-08-26 0.7784 +12.6% 0.7781 0.7787 0.7784 0.383 0.203 0.293
AVGO Broadcom information_technology 2026-08-26 0.7539 +15.0% 0.6845 0.8233 0.7539 0.383 0.315 0.349
APP AppLovin communication_services 2026-08-26 0.7467 +18.1% 0.9275 0.5659 0.7467 0.383 0.203 0.293
PWR Quanta Services industrials 2026-08-26 0.7452 +14.3% 0.7849 0.7056 0.7452 0.383 0.512 0.447
ECHO EchoStar communication_services 2026-08-26 0.7407 +13.5% 0.8404 0.6410 0.7407 0.383 0.203 0.293
IBM IBM information_technology 2026-08-26 0.7360 +13.4% 0.7714 0.7005 0.7360 0.383 0.315 0.349
LII Lennox International industrials 2026-08-26 0.7151 +15.5% 0.7246 0.7056 0.7151 0.383 0.512 0.447
VRT Vertiv industrials 2026-08-26 0.7151 +15.5% 0.7246 0.7056 0.7151 0.383 0.512 0.447
CHTR Charter Communications communication_services 2026-08-26 0.7096 +13.9% 0.7781 0.6410 0.7096 0.383 0.203 0.293
FOX Fox Corporation (Class B) communication_services 2026-08-26 0.7096 +12.6% 0.7781 0.6410 0.7096 0.383 0.203 0.293
GOOG Alphabet Inc. (Class C) communication_services 2026-08-26 0.7096 +13.5% 0.7781 0.6410 0.7096 0.383 0.203 0.293
TKO TKO Group Holdings communication_services 2026-08-26 0.7096 +12.2% 0.7781 0.6410 0.7096 0.383 0.203 0.293
KLAC KLA Corporation information_technology 2026-08-26 0.6958 +15.3% 0.6911 0.7005 0.6958 0.383 0.315 0.349
ANET Arista Networks information_technology 2026-08-26 0.6925 +15.4% 0.6845 0.7005 0.6925 0.383 0.315 0.349
COHR Coherent Corp. information_technology 2026-08-26 0.6925 +14.6% 0.6845 0.7005 0.6925 0.383 0.315 0.349
GDDY GoDaddy information_technology 2026-08-26 0.6925 +14.1% 0.6845 0.7005 0.6925 0.383 0.315 0.349
MPWR Monolithic Power Systems information_technology 2026-08-26 0.6925 +14.7% 0.6845 0.7005 0.6925 0.383 0.315 0.349
FIX Comfort Systems USA industrials 2026-08-26 0.6896 +14.8% 0.7246 0.6546 0.6896 0.383 0.512 0.447
GNRC Generac industrials 2026-08-26 0.6896 +14.0% 0.7246 0.6546 0.6896 0.383 0.512 0.447
UAL United Airlines Holdings industrials 2026-08-26 0.6896 +13.0% 0.7246 0.6546 0.6896 0.383 0.512 0.447
NFLX Netflix communication_services 2026-08-26 0.6891 +13.4% 0.7781 0.6000 0.6891 0.383 0.203 0.293
SMCI Supermicro information_technology 2026-08-26 0.6862 +17.7% 0.6845 0.6880 0.6862 0.383 0.315 0.349
GOOGL Alphabet Inc. (Class A) communication_services 2026-08-26 0.6828 +13.6% 0.7246 0.6410 0.6828 0.383 0.203 0.293
FOXA Fox Corporation (Class A) communication_services 2026-08-26 0.6720 +12.8% 0.7781 0.5659 0.6720 0.383 0.203 0.293
AMAT Applied Materials information_technology 2026-08-26 0.6708 +15.4% 0.6845 0.6571 0.6708 0.383 0.315 0.349
AMD Advanced Micro Devices information_technology 2026-08-26 0.6608 +13.8% 0.6211 0.7005 0.6608 0.383 0.315 0.349
CRWD CrowdStrike information_technology 2026-08-26 0.6608 +14.0% 0.6211 0.7005 0.6608 0.383 0.315 0.349
FSLR First Solar information_technology 2026-08-26 0.6608 +15.9% 0.6211 0.7005 0.6608 0.383 0.315 0.349
MRVL Marvell Technology information_technology 2026-08-26 0.6608 +13.4% 0.6211 0.7005 0.6608 0.383 0.315 0.349
MU Micron Technology information_technology 2026-08-26 0.6608 +19.4% 0.6211 0.7005 0.6608 0.383 0.315 0.349
NVDA Nvidia information_technology 2026-08-26 0.6608 +14.8% 0.6211 0.7005 0.6608 0.383 0.315 0.349
PANW Palo Alto Networks information_technology 2026-08-26 0.6608 +14.7% 0.6211 0.7005 0.6608 0.383 0.315 0.349
Q Qnity Electronics information_technology 2026-08-26 0.6608 +13.8% 0.6211 0.7005 0.6608 0.383 0.315 0.349
PSKY Paramount Skydance Corporation communication_services 2026-08-26 0.6608 +13.2% 0.6805 0.6410 0.6608 0.383 0.203 0.293
SNDK Sandisk information_technology 2026-08-26 0.6545 +21.4% 0.6211 0.6880 0.6545 0.383 0.315 0.349
CAT Caterpillar Inc. industrials 2026-08-26 0.6535 +13.3% 0.7246 0.5824 0.6535 0.383 0.512 0.447
GEV GE Vernova industrials 2026-08-26 0.6535 +16.6% 0.7246 0.5824 0.6535 0.383 0.512 0.447
TDG TransDigm Group industrials 2026-08-26 0.6533 +12.2% 0.7246 0.5820 0.6533 0.383 0.512 0.447
LEN Lennar consumer_discretionary 2026-08-26 0.6521 +13.0% 0.6908 0.6134 0.6521 0.383 0.458 0.421
NCLH Norwegian Cruise Line Holdings consumer_discretionary 2026-08-26 0.6521 +14.1% 0.6908 0.6134 0.6521 0.383 0.458 0.421
NXPI NXP Semiconductors information_technology 2026-08-26 0.6498 +13.2% 0.6845 0.6152 0.6498 0.383 0.315 0.349
RDDT Reddit communication_services 2026-08-26 0.6453 +14.4% 0.7246 0.5659 0.6453 0.383 0.203 0.293
COIN Coinbase financials 2026-08-26 0.6406 +15.4% 0.6667 0.6145 0.6406 0.383 0.454 0.418
DHI D. R. Horton consumer_discretionary 2026-08-26 0.6382 +12.9% 0.6630 0.6134 0.6382 0.383 0.458 0.421
CDNS Cadence Design Systems information_technology 2026-08-26 0.6371 +13.0% 0.7029 0.5713 0.6371 0.383 0.315 0.349
PNR Pentair industrials 2026-08-26 0.6315 +12.7% 0.6600 0.6029 0.6315 0.383 0.512 0.447
LHX L3Harris industrials 2026-08-26 0.6286 +12.3% 0.6027 0.6546 0.6286 0.383 0.512 0.447
CVNA Carvana consumer_discretionary 2026-08-26 0.6283 +15.9% 0.6908 0.5657 0.6283 0.383 0.458 0.421
APTV Aptiv consumer_discretionary 2026-08-26 0.6281 +14.4% 0.6908 0.5653 0.6281 0.383 0.458 0.421
LRCX Lam Research information_technology 2026-08-26 0.6279 +15.3% 0.6845 0.5713 0.6279 0.383 0.315 0.349
ON ON Semiconductor information_technology 2026-08-26 0.6279 +14.6% 0.6845 0.5713 0.6279 0.383 0.315 0.349
SNPS Synopsys information_technology 2026-08-26 0.6279 +12.3% 0.6845 0.5713 0.6279 0.383 0.315 0.349
WDC Western Digital information_technology 2026-08-26 0.6279 +16.5% 0.6845 0.5713 0.6279 0.383 0.315 0.349
PHM PulteGroup consumer_discretionary 2026-08-26 0.6271 +12.6% 0.6408 0.6134 0.6271 0.383 0.458 0.421
HWM Howmet Aerospace industrials 2026-08-26 0.6255 +12.3% 0.6027 0.6483 0.6255 0.383 0.512 0.447
URI United Rentals industrials 2026-08-26 0.6255 +13.1% 0.6027 0.6483 0.6255 0.383 0.512 0.447
CMI Cummins industrials 2026-08-26 0.6212 +13.1% 0.6600 0.5824 0.6212 0.383 0.512 0.447
HUBB Hubbell Incorporated industrials 2026-08-26 0.6212 +12.8% 0.6600 0.5824 0.6212 0.383 0.512 0.447
ORLY O'Reilly Automotive consumer_discretionary 2026-08-26 0.6176 +12.0% 0.6630 0.5722 0.6176 0.383 0.458 0.421
TSLA Tesla, Inc. consumer_discretionary 2026-08-26 0.6169 +15.5% 0.6908 0.5430 0.6169 0.383 0.458 0.421
CHRW C.H. Robinson industrials 2026-08-26 0.6146 +13.9% 0.5237 0.7056 0.6146 0.383 0.512 0.447
CCL Carnival Corporation consumer_discretionary 2026-08-26 0.6144 +13.1% 0.6630 0.5657 0.6144 0.383 0.458 0.421
LVS Las Vegas Sands consumer_discretionary 2026-08-26 0.6144 +12.0% 0.6630 0.5657 0.6144 0.383 0.458 0.421
ODFL Old Dominion industrials 2026-08-26 0.6141 +12.4% 0.5800 0.6483 0.6141 0.383 0.512 0.447
FDXF FedEx Freight industrials 2026-08-26 0.6123 +17.0% 0.7246 0.5000 0.6123 0.383 0.512 0.447
ORCL Oracle Corporation information_technology 2026-08-26 0.6086 +15.8% 0.5168 0.7005 0.6086 0.383 0.315 0.349
RL Ralph Lauren Corporation consumer_discretionary 2026-08-26 0.6056 +12.4% 0.6454 0.5657 0.6056 0.383 0.458 0.421
AZO AutoZone consumer_discretionary 2026-08-26 0.6054 +12.0% 0.6454 0.5653 0.6054 0.383 0.458 0.421
TSCO Tractor Supply consumer_discretionary 2026-08-26 0.6047 +12.2% 0.5961 0.6134 0.6047 0.383 0.458 0.421
DELL Dell Technologies information_technology 2026-08-26 0.6047 +15.5% 0.5088 0.7005 0.6047 0.383 0.315 0.349
F Ford Motor Company consumer_discretionary 2026-08-26 0.6033 +13.0% 0.6408 0.5657 0.6033 0.383 0.458 0.421
RCL Royal Caribbean Group consumer_discretionary 2026-08-26 0.6030 +13.2% 0.6630 0.5430 0.6030 0.383 0.458 0.421
LDOS Leidos industrials 2026-08-26 0.6025 +13.1% 0.5800 0.6250 0.6025 0.383 0.512 0.447
HONA Honeywell Aerospace industrials 2026-08-26 0.5972 +16.7% 0.7246 0.4699 0.5972 0.383 0.512 0.447
ACN Accenture information_technology 2026-08-26 0.5962 +14.9% 0.6211 0.5713 0.5962 0.383 0.315 0.349
CIEN Ciena information_technology 2026-08-26 0.5962 +14.3% 0.6211 0.5713 0.5962 0.383 0.315 0.349
FTNT Fortinet information_technology 2026-08-26 0.5962 +13.3% 0.6211 0.5713 0.5962 0.383 0.315 0.349
STX Seagate Technology information_technology 2026-08-26 0.5962 +17.0% 0.6211 0.5713 0.5962 0.383 0.315 0.349
TER Teradyne information_technology 2026-08-26 0.5962 +15.4% 0.6211 0.5713 0.5962 0.383 0.315 0.349
AAPL Apple Inc. information_technology 2026-08-26 0.5955 +12.8% 0.6211 0.5699 0.5955 0.383 0.315 0.349
GLW Corning Inc. information_technology 2026-08-26 0.5954 +16.1% 0.6196 0.5713 0.5954 0.383 0.315 0.349
DECK Deckers Brands consumer_discretionary 2026-08-26 0.5942 +12.9% 0.6454 0.5430 0.5942 0.383 0.458 0.421
ROL Rollins, Inc. industrials 2026-08-26 0.5923 +12.1% 0.6027 0.5820 0.5923 0.383 0.512 0.447
NRG NRG Energy utilities 2026-08-26 0.5921 +14.1% 0.6935 0.4907 0.5921 0.383 0.402 0.392
VST Vistra Corp. utilities 2026-08-26 0.5921 +14.3% 0.6935 0.4907 0.5921 0.383 0.402 0.392
LOW Lowe's consumer_discretionary 2026-08-26 0.5919 +12.0% 0.6408 0.5430 0.5919 0.383 0.458 0.421
MAR Marriott International consumer_discretionary 2026-08-26 0.5919 +12.1% 0.6408 0.5430 0.5919 0.383 0.458 0.421
FIS Fidelity National Information Services financials 2026-08-26 0.5899 +13.0% 0.5653 0.6145 0.5899 0.383 0.454 0.418
FISV Fiserv financials 2026-08-26 0.5899 +13.2% 0.5653 0.6145 0.5899 0.383 0.454 0.418
KEY KeyCorp financials 2026-08-26 0.5899 +12.7% 0.5653 0.6145 0.5899 0.383 0.454 0.418
DAL Delta Air Lines industrials 2026-08-26 0.5892 +12.6% 0.5237 0.6546 0.5892 0.383 0.512 0.447
IP International Paper materials 2026-08-26 0.5881 +12.7% 0.5612 0.6150 0.5881 0.383 0.471 0.427
PLTR Palantir Technologies information_technology 2026-08-26 0.5862 +16.6% 0.4845 0.6880 0.5862 0.383 0.315 0.349
HII Huntington Ingalls Industries industrials 2026-08-26 0.5827 +12.7% 0.7246 0.4408 0.5827 0.383 0.512 0.447
TT Trane Technologies industrials 2026-08-26 0.5824 +12.3% 0.5942 0.5706 0.5824 0.383 0.512 0.447
CARR Carrier Global industrials 2026-08-26 0.5810 +13.1% 0.5800 0.5820 0.5810 0.383 0.512 0.447
FLEX Flex Ltd. information_technology 2026-08-26 0.5777 +13.2% 0.5312 0.6241 0.5777 0.383 0.315 0.349
MAS Masco industrials 2026-08-26 0.5753 +12.6% 0.5800 0.5706 0.5753 0.383 0.512 0.447
VRSK Verisk Analytics industrials 2026-08-26 0.5753 +12.6% 0.5800 0.5706 0.5753 0.383 0.512 0.447
FITB Fifth Third Bancorp financials 2026-08-26 0.5749 +12.1% 0.5354 0.6145 0.5749 0.383 0.454 0.418
NVR NVR, Inc. consumer_discretionary 2026-08-26 0.5718 +12.2% 0.5714 0.5722 0.5718 0.383 0.458 0.421
MCD McDonald's consumer_discretionary 2026-08-26 0.5685 +11.9% 0.5714 0.5657 0.5685 0.383 0.458 0.421
AFL Aflac financials 2026-08-26 0.5684 +12.1% 0.5222 0.6145 0.5684 0.383 0.454 0.418
ARES Ares Management financials 2026-08-26 0.5684 +12.9% 0.5222 0.6145 0.5684 0.383 0.454 0.418
BRO Brown & Brown financials 2026-08-26 0.5684 +12.2% 0.5222 0.6145 0.5684 0.383 0.454 0.418
CFG Citizens Financial Group financials 2026-08-26 0.5684 +12.4% 0.5222 0.6145 0.5684 0.383 0.454 0.418
HOOD Robinhood Markets financials 2026-08-26 0.5684 +17.0% 0.5222 0.6145 0.5684 0.383 0.454 0.418
KKR KKR & Co. financials 2026-08-26 0.5684 +12.9% 0.5222 0.6145 0.5684 0.383 0.454 0.418
TJX TJX Companies consumer_discretionary 2026-08-26 0.5683 +12.1% 0.5714 0.5653 0.5683 0.383 0.458 0.421
TPR Tapestry, Inc. consumer_discretionary 2026-08-26 0.5683 +12.6% 0.5714 0.5653 0.5683 0.383 0.458 0.421
MSCI MSCI financials 2026-08-26 0.5675 +12.2% 0.5206 0.6145 0.5675 0.383 0.454 0.418
CRH CRH plc materials 2026-08-26 0.5667 +12.0% 0.5746 0.5587 0.5667 0.383 0.471 0.427
AXP American Express financials 2026-08-26 0.5658 +12.2% 0.5206 0.6111 0.5658 0.383 0.454 0.418
INTU Intuit information_technology 2026-08-26 0.5655 +14.3% 0.6845 0.4465 0.5655 0.383 0.315 0.349
ADI Analog Devices information_technology 2026-08-26 0.5654 +12.9% 0.6845 0.4463 0.5654 0.383 0.315 0.349
MCHP Microchip Technology information_technology 2026-08-26 0.5654 +14.9% 0.6845 0.4463 0.5654 0.383 0.315 0.349
EME Emcor industrials 2026-08-26 0.5601 +14.4% 0.4591 0.6610 0.5601 0.383 0.512 0.447
AMZN Amazon consumer_discretionary 2026-08-26 0.5572 +13.5% 0.5714 0.5430 0.5572 0.383 0.458 0.421
BKNG Booking Holdings consumer_discretionary 2026-08-26 0.5572 +13.6% 0.5714 0.5430 0.5572 0.383 0.458 0.421
DASH DoorDash consumer_discretionary 2026-08-26 0.5572 +13.3% 0.5714 0.5430 0.5572 0.383 0.458 0.421
LULU Lululemon Athletica consumer_discretionary 2026-08-26 0.5572 +12.6% 0.5714 0.5430 0.5572 0.383 0.458 0.421
MGM MGM Resorts consumer_discretionary 2026-08-26 0.5572 +12.1% 0.5714 0.5430 0.5572 0.383 0.458 0.421
META Meta Platforms communication_services 2026-08-26 0.5562 +13.9% 0.5465 0.5659 0.5562 0.383 0.203 0.293
RF Regions Financial Corporation financials 2026-08-26 0.5561 +12.1% 0.5222 0.5899 0.5561 0.383 0.454 0.418
QCOM Qualcomm information_technology 2026-08-26 0.5543 +15.2% 0.4845 0.6241 0.5543 0.383 0.315 0.349
HBAN Huntington Bancshares financials 2026-08-26 0.5542 +12.0% 0.5222 0.5862 0.5542 0.383 0.454 0.418
DDOG Datadog information_technology 2026-08-26 0.5479 +13.4% 0.5784 0.5173 0.5479 0.383 0.315 0.349
TTWO Take-Two Interactive communication_services 2026-08-26 0.5456 +12.3% 0.5253 0.5659 0.5456 0.383 0.203 0.293
TYL Tyler Technologies information_technology 2026-08-26 0.5443 +13.1% 0.4735 0.6152 0.5443 0.383 0.315 0.349
LITE Lumentum information_technology 2026-08-26 0.5395 +18.7% 0.4549 0.6241 0.5395 0.383 0.315 0.349
ALB Albemarle Corporation materials 2026-08-26 0.5362 +12.6% 0.5612 0.5112 0.5362 0.383 0.471 0.427
ACGL Arch Capital Group financials 2026-08-26 0.5321 +12.1% 0.4496 0.6145 0.5321 0.383 0.454 0.418
PODD Insulet Corporation health_care 2026-08-26 0.5316 +14.1% 0.5740 0.4891 0.5316 0.383 0.436 0.409
NWSA News Corp (Class A) communication_services 2026-08-26 0.5303 +12.0% 0.4195 0.6410 0.5303 0.383 0.203 0.293
OMC Omnicom Group communication_services 2026-08-26 0.5303 +12.2% 0.4195 0.6410 0.5303 0.383 0.203 0.293
JBL Jabil information_technology 2026-08-26 0.5279 +13.7% 0.4845 0.5713 0.5279 0.383 0.315 0.349
NOW ServiceNow information_technology 2026-08-26 0.5279 +15.2% 0.4845 0.5713 0.5279 0.383 0.315 0.349
IT Gartner information_technology 2026-08-26 0.5272 +14.3% 0.4845 0.5699 0.5272 0.383 0.315 0.349
LYV Live Nation Entertainment communication_services 2026-08-26 0.5249 +12.2% 0.4840 0.5659 0.5249 0.383 0.203 0.293
WRB W. R. Berkley Corporation financials 2026-08-26 0.5230 +12.0% 0.4314 0.6145 0.5230 0.383 0.454 0.418
APH Amphenol information_technology 2026-08-26 0.5224 +13.5% 0.4735 0.5713 0.5224 0.383 0.315 0.349
HLT Hilton Worldwide consumer_discretionary 2026-08-26 0.5207 +12.0% 0.4984 0.5430 0.5207 0.383 0.458 0.421
TFC Truist Financial financials 2026-08-26 0.5198 +12.0% 0.4496 0.5899 0.5198 0.383 0.454 0.418
ERIE Erie Indemnity financials 2026-08-26 0.5179 +14.8% 0.4496 0.5862 0.5179 0.383 0.454 0.418
JCI Johnson Controls industrials 2026-08-26 0.5149 +12.4% 0.4591 0.5706 0.5149 0.383 0.512 0.447
TRGP Targa Resources energy 2026-08-26 0.5141 +12.6% 0.5468 0.4815 0.5141 0.383 0.431 0.407
ZBRA Zebra Technologies information_technology 2026-08-26 0.5140 +14.6% 0.4567 0.5713 0.5140 0.383 0.315 0.349
ISRG Intuitive Surgical health_care 2026-08-26 0.5135 +13.2% 0.5937 0.4332 0.5135 0.383 0.436 0.409
APO Apollo Global Management financials 2026-08-26 0.5113 +12.9% 0.4082 0.6145 0.5113 0.383 0.454 0.418
GM General Motors consumer_discretionary 2026-08-26 0.5101 +12.2% 0.4545 0.5657 0.5101 0.383 0.458 0.421
BSX Boston Scientific health_care 2026-08-26 0.5099 +12.5% 0.5308 0.4891 0.5099 0.383 0.436 0.409
BNY BNY Mellon financials 2026-08-26 0.5088 +12.0% 0.4314 0.5862 0.5088 0.383 0.454 0.418
T AT&T communication_services 2026-08-26 0.5085 +12.0% 0.4510 0.5659 0.5085 0.383 0.203 0.293
CMCSA Comcast communication_services 2026-08-26 0.5083 +12.1% 0.4508 0.5659 0.5083 0.383 0.203 0.293
DIS Walt Disney Company (The) communication_services 2026-08-26 0.5080 +11.9% 0.3750 0.6410 0.5080 0.383 0.203 0.293
TXN Texas Instruments information_technology 2026-08-26 0.5069 +13.4% 0.6211 0.3926 0.5069 0.383 0.315 0.349
BAC Bank of America financials 2026-08-26 0.5065 +12.0% 0.5222 0.4908 0.5065 0.383 0.454 0.418
GS Goldman Sachs financials 2026-08-26 0.5065 +12.7% 0.5222 0.4908 0.5065 0.383 0.454 0.418
PGR Progressive Corporation financials 2026-08-26 0.5065 +12.3% 0.5222 0.4908 0.5065 0.383 0.454 0.418
BRK.B Berkshire Hathaway financials 2026-08-26 0.5057 +12.0% 0.5206 0.4908 0.5057 0.383 0.454 0.418
MSI Motorola Solutions information_technology 2026-08-26 0.5054 +12.4% 0.3868 0.6241 0.5054 0.383 0.315 0.349
CRM Salesforce information_technology 2026-08-26 0.5009 +14.1% 0.4845 0.5173 0.5009 0.383 0.315 0.349
NTAP NetApp information_technology 2026-08-26 0.5009 +13.4% 0.4845 0.5173 0.5009 0.383 0.315 0.349
MTB M&T Bank financials 2026-08-26 0.4992 +12.1% 0.5076 0.4908 0.4992 0.383 0.454 0.418
SPGI S&P Global financials 2026-08-26 0.4992 +12.0% 0.5076 0.4908 0.4992 0.383 0.454 0.418
BBY Best Buy consumer_discretionary 2026-08-26 0.4988 +12.4% 0.4545 0.5430 0.4988 0.383 0.458 0.421
HD Home Depot (The) consumer_discretionary 2026-08-26 0.4975 +12.0% 0.4984 0.4967 0.4975 0.383 0.458 0.421
CI Cigna health_care 2026-08-26 0.4966 +12.0% 0.5308 0.4624 0.4966 0.383 0.436 0.409
NWS News Corp (Class B) communication_services 2026-08-26 0.4937 +12.0% 0.4195 0.5680 0.4937 0.383 0.203 0.293
ZTS Zoetis health_care 2026-08-26 0.4933 +12.4% 0.4975 0.4891 0.4933 0.383 0.436 0.409
AXON Axon Enterprise industrials 2026-08-26 0.4899 +14.6% 0.3974 0.5824 0.4899 0.383 0.512 0.447
CMG Chipotle Mexican Grill consumer_discretionary 2026-08-26 0.4898 +14.8% 0.4073 0.5722 0.4898 0.383 0.458 0.421
HPE Hewlett Packard Enterprise information_technology 2026-08-26 0.4895 +16.6% 0.4077 0.5713 0.4895 0.383 0.315 0.349
MLM Martin Marietta Materials materials 2026-08-26 0.4881 +12.3% 0.4650 0.5112 0.4881 0.383 0.471 0.427
SHW Sherwin-Williams materials 2026-08-26 0.4881 +12.3% 0.4650 0.5112 0.4881 0.383 0.471 0.427
GPC Genuine Parts Company consumer_discretionary 2026-08-26 0.4865 +12.5% 0.4073 0.5657 0.4865 0.383 0.458 0.421
GRMN Garmin consumer_discretionary 2026-08-26 0.4865 +13.2% 0.4073 0.5657 0.4865 0.383 0.458 0.421
LLY Lilly (Eli) health_care 2026-08-26 0.4846 +13.1% 0.4802 0.4891 0.4846 0.383 0.436 0.409
EFX Equifax industrials 2026-08-26 0.4840 +12.9% 0.3974 0.5706 0.4840 0.383 0.512 0.447
GE GE Aerospace industrials 2026-08-26 0.4840 +12.4% 0.3974 0.5706 0.4840 0.383 0.512 0.447
IBKR Interactive Brokers financials 2026-08-26 0.4839 +12.8% 0.5222 0.4457 0.4839 0.383 0.454 0.418
COR Cencora health_care 2026-08-26 0.4820 +12.8% 0.5308 0.4332 0.4820 0.383 0.436 0.409
HPQ HP Inc. information_technology 2026-08-26 0.4790 +13.3% 0.3868 0.5713 0.4790 0.383 0.315 0.349
ABNB Airbnb consumer_discretionary 2026-08-26 0.4752 +13.2% 0.4073 0.5430 0.4752 0.383 0.458 0.421
EXPE Expedia Group consumer_discretionary 2026-08-26 0.4752 +13.5% 0.4073 0.5430 0.4752 0.383 0.458 0.421
NKE Nike, Inc. consumer_discretionary 2026-08-26 0.4752 +12.2% 0.4073 0.5430 0.4752 0.383 0.458 0.421
ROST Ross Stores consumer_discretionary 2026-08-26 0.4752 +12.0% 0.4073 0.5430 0.4752 0.383 0.458 0.421
WSM Williams-Sonoma, Inc. consumer_discretionary 2026-08-26 0.4752 +12.9% 0.4073 0.5430 0.4752 0.383 0.458 0.421
CTAS Cintas industrials 2026-08-26 0.4725 +11.9% 0.4149 0.5301 0.4725 0.383 0.512 0.447
WBD Warner Bros. Discovery communication_services 2026-08-26 0.4704 +12.1% 0.3750 0.5659 0.4704 0.383 0.203 0.293
BX Blackstone Inc. financials 2026-08-26 0.4702 +12.9% 0.4496 0.4908 0.4702 0.383 0.454 0.418
CB Chubb Limited financials 2026-08-26 0.4702 +12.0% 0.4496 0.4908 0.4702 0.383 0.454 0.418
CBOE Cboe Global Markets financials 2026-08-26 0.4702 +12.8% 0.4496 0.4908 0.4702 0.383 0.454 0.418
PNC PNC Financial Services financials 2026-08-26 0.4702 +12.0% 0.4496 0.4908 0.4702 0.383 0.454 0.418
PH Parker Hannifin industrials 2026-08-26 0.4653 +12.6% 0.3599 0.5706 0.4653 0.383 0.512 0.447
STLD Steel Dynamics materials 2026-08-26 0.4622 +12.7% 0.3657 0.5587 0.4622 0.383 0.471 0.427
ALL Allstate financials 2026-08-26 0.4611 +12.0% 0.4314 0.4908 0.4611 0.383 0.454 0.418
SYF Synchrony Financial financials 2026-08-26 0.4611 +12.5% 0.4314 0.4908 0.4611 0.383 0.454 0.418
ADSK Autodesk information_technology 2026-08-26 0.4599 +13.1% 0.4735 0.4463 0.4599 0.383 0.315 0.349
UHS Universal Health Services health_care 2026-08-26 0.4591 +12.5% 0.4633 0.4549 0.4591 0.383 0.436 0.409
ETN Eaton Corporation industrials 2026-08-26 0.4564 +14.5% 0.5237 0.3891 0.4564 0.383 0.512 0.447
SW Smurfit Westrock materials 2026-08-26 0.4537 +12.7% 0.3849 0.5225 0.4537 0.383 0.471 0.427
DPZ Domino's consumer_discretionary 2026-08-26 0.4520 +12.2% 0.4073 0.4967 0.4520 0.383 0.458 0.421
EBAY eBay Inc. consumer_discretionary 2026-08-26 0.4520 +12.3% 0.4073 0.4967 0.4520 0.383 0.458 0.421
HAS Hasbro consumer_discretionary 2026-08-26 0.4520 +12.2% 0.4073 0.4967 0.4520 0.383 0.458 0.421
YUM Yum! Brands consumer_discretionary 2026-08-26 0.4520 +12.0% 0.4073 0.4967 0.4520 0.383 0.458 0.421
GEN Gen Digital information_technology 2026-08-26 0.4520 +12.2% 0.3868 0.5173 0.4520 0.383 0.315 0.349
DOW Dow Inc. materials 2026-08-26 0.4518 +13.3% 0.2313 0.6722 0.4518 0.383 0.471 0.427
ULTA Ulta Beauty consumer_discretionary 2026-08-26 0.4517 +12.9% 0.4073 0.4961 0.4517 0.383 0.458 0.421
WMB Williams Companies energy 2026-08-26 0.4516 +12.4% 0.4217 0.4815 0.4516 0.383 0.431 0.407
MSFT Microsoft information_technology 2026-08-26 0.4506 +14.5% 0.4549 0.4463 0.4506 0.383 0.315 0.349
UBER Uber industrials 2026-08-26 0.4500 +13.5% 0.4591 0.4408 0.4500 0.383 0.512 0.447
AIG American International Group financials 2026-08-26 0.4494 +12.0% 0.4496 0.4492 0.4494 0.383 0.454 0.418
CEG Constellation Energy utilities 2026-08-26 0.4489 +12.8% 0.4916 0.4062 0.4489 0.383 0.402 0.392
DVA DaVita health_care 2026-08-26 0.4482 +13.2% 0.4633 0.4332 0.4482 0.383 0.436 0.409
MCK McKesson Corporation health_care 2026-08-26 0.4482 +12.6% 0.4633 0.4332 0.4482 0.383 0.436 0.409
NEM Newmont materials 2026-08-26 0.4480 +14.3% 0.3849 0.5112 0.4480 0.383 0.471 0.427
VMC Vulcan Materials Company materials 2026-08-26 0.4480 +12.2% 0.3849 0.5112 0.4480 0.383 0.471 0.427
AJG Arthur J. Gallagher & Co. financials 2026-08-26 0.4476 +12.2% 0.4496 0.4457 0.4476 0.383 0.454 0.418
CPAY Corpay financials 2026-08-26 0.4476 +12.2% 0.4496 0.4457 0.4476 0.383 0.454 0.418
HCA HCA Healthcare health_care 2026-08-26 0.4476 +12.8% 0.4762 0.4190 0.4476 0.383 0.436 0.409
SO Southern Company utilities 2026-08-26 0.4467 +12.0% 0.4026 0.4907 0.4467 0.383 0.402 0.392
XYL Xylem Inc. industrials 2026-08-26 0.4460 +11.9% 0.3213 0.5706 0.4460 0.383 0.512 0.447
COST Costco consumer_staples 2026-08-26 0.4442 +12.2% 0.4449 0.4435 0.4442 0.383 0.393 0.388
XYZ Block, Inc. financials 2026-08-26 0.4403 +13.4% 0.4314 0.4492 0.4403 0.383 0.454 0.418
WFC Wells Fargo financials 2026-08-26 0.4393 +12.0% 0.3879 0.4908 0.4393 0.383 0.454 0.418
ADBE Adobe Inc. information_technology 2026-08-26 0.4386 +13.3% 0.4845 0.3926 0.4386 0.383 0.315 0.349
AKAM Akamai Technologies information_technology 2026-08-26 0.4386 +13.2% 0.4845 0.3926 0.4386 0.383 0.315 0.349
KEYS Keysight Technologies information_technology 2026-08-26 0.4386 +12.7% 0.4845 0.3926 0.4386 0.383 0.315 0.349
WMT Walmart consumer_staples 2026-08-26 0.4376 +12.5% 0.4449 0.4304 0.4376 0.383 0.393 0.388
CINF Cincinnati Financial financials 2026-08-26 0.4374 +12.0% 0.3841 0.4908 0.4374 0.383 0.454 0.418
L Loews Corporation financials 2026-08-26 0.4374 +12.0% 0.3841 0.4908 0.4374 0.383 0.454 0.418
MCO Moody's Corporation financials 2026-08-26 0.4374 +12.1% 0.3841 0.4908 0.4374 0.383 0.454 0.418
DRI Darden Restaurants consumer_discretionary 2026-08-26 0.4337 +12.1% 0.3707 0.4967 0.4337 0.383 0.458 0.421
PTC PTC Inc. information_technology 2026-08-26 0.4330 +12.8% 0.4735 0.3926 0.4330 0.383 0.315 0.349
ICE Intercontinental Exchange financials 2026-08-26 0.4323 +12.1% 0.3737 0.4908 0.4323 0.383 0.454 0.418
CASY Casey's consumer_staples 2026-08-26 0.4315 +12.7% 0.4664 0.3966 0.4315 0.383 0.393 0.388
FDX FedEx industrials 2026-08-26 0.4300 +12.4% 0.3599 0.5000 0.4300 0.383 0.512 0.447
HAL Halliburton energy 2026-08-26 0.4291 +13.0% 0.3767 0.4815 0.4291 0.383 0.431 0.407
CTSH Cognizant information_technology 2026-08-26 0.4285 +14.9% 0.4549 0.4020 0.4285 0.383 0.315 0.349
FANG Diamondback Energy energy 2026-08-26 0.4251 +12.7% 0.4217 0.4286 0.4251 0.383 0.431 0.407
UNH UnitedHealth Group health_care 2026-08-26 0.4248 +12.0% 0.3947 0.4549 0.4248 0.383 0.436 0.409
WDAY Workday, Inc. information_technology 2026-08-26 0.4247 +14.3% 0.4567 0.3926 0.4247 0.383 0.315 0.349
FFIV F5, Inc. information_technology 2026-08-26 0.4238 +12.3% 0.4549 0.3926 0.4238 0.383 0.315 0.349
INTC Intel information_technology 2026-08-26 0.4238 +16.1% 0.4549 0.3926 0.4238 0.383 0.315 0.349
SWKS Skyworks Solutions information_technology 2026-08-26 0.4238 +14.0% 0.4549 0.3926 0.4238 0.383 0.315 0.349
TEL TE Connectivity information_technology 2026-08-26 0.4238 +12.2% 0.4549 0.3926 0.4238 0.383 0.315 0.349
BG Bunge Global consumer_staples 2026-08-26 0.4207 +12.1% 0.4449 0.3966 0.4207 0.383 0.393 0.388
MO Altria consumer_staples 2026-08-26 0.4207 +12.4% 0.4449 0.3966 0.4207 0.383 0.393 0.388
ROK Rockwell Automation industrials 2026-08-26 0.4191 +12.2% 0.3974 0.4408 0.4191 0.383 0.512 0.447
RJF Raymond James Financial financials 2026-08-26 0.4185 +12.0% 0.3462 0.4908 0.4185 0.383 0.454 0.418
AEP American Electric Power utilities 2026-08-26 0.4172 +12.0% 0.3436 0.4907 0.4172 0.383 0.402 0.392
LMT Lockheed Martin industrials 2026-08-26 0.4153 +12.7% 0.4591 0.3715 0.4153 0.383 0.512 0.447
AON Aon plc financials 2026-08-26 0.4149 +12.0% 0.3841 0.4457 0.4149 0.383 0.454 0.418
COF Capital One financials 2026-08-26 0.4149 +12.0% 0.3841 0.4457 0.4149 0.383 0.454 0.418
TAP Molson Coors Beverage Company consumer_staples 2026-08-26 0.4130 +12.0% 0.4034 0.4227 0.4130 0.383 0.393 0.388
LNT Alliant Energy utilities 2026-08-26 0.4060 +12.0% 0.3213 0.4907 0.4060 0.383 0.402 0.392
NI NiSource utilities 2026-08-26 0.4060 +12.0% 0.3213 0.4907 0.4060 0.383 0.402 0.392
PEG Public Service Enterprise Group utilities 2026-08-26 0.4060 +12.0% 0.3213 0.4907 0.4060 0.383 0.402 0.392
CVS CVS Health health_care 2026-08-26 0.4057 +12.0% 0.3783 0.4332 0.4057 0.383 0.436 0.409
AIZ Assurant financials 2026-08-26 0.4050 +12.0% 0.3644 0.4457 0.4050 0.383 0.454 0.418
PFG Principal Financial Group financials 2026-08-26 0.4050 +12.0% 0.3644 0.4457 0.4050 0.383 0.454 0.418
IR Ingersoll Rand industrials 2026-08-26 0.4047 +12.3% 0.3974 0.4120 0.4047 0.383 0.512 0.447
CPRT Copart industrials 2026-08-26 0.4040 +13.2% 0.3974 0.4105 0.4040 0.383 0.512 0.447
TPL Texas Pacific Land Corporation energy 2026-08-26 0.4019 +13.1% 0.3552 0.4486 0.4019 0.383 0.431 0.407
CDW CDW Corporation information_technology 2026-08-26 0.4002 +12.7% 0.4077 0.3926 0.4002 0.383 0.315 0.349
CSCO Cisco information_technology 2026-08-26 0.4002 +13.3% 0.4077 0.3926 0.4002 0.383 0.315 0.349
KR Kroger consumer_staples 2026-08-26 0.4000 +12.0% 0.4034 0.3966 0.4000 0.383 0.393 0.388
PNW Pinnacle West Capital utilities 2026-08-26 0.3994 +12.0% 0.3081 0.4907 0.3994 0.383 0.402 0.392
MS Morgan Stanley financials 2026-08-26 0.3990 +12.0% 0.3841 0.4138 0.3990 0.383 0.454 0.418
SYK Stryker Corporation health_care 2026-08-26 0.3986 +12.6% 0.3783 0.4190 0.3986 0.383 0.436 0.409
CAH Cardinal Health health_care 2026-08-26 0.3976 +12.1% 0.3621 0.4332 0.3976 0.383 0.436 0.409
CNC Centene Corporation health_care 2026-08-26 0.3976 +12.5% 0.3621 0.4332 0.3976 0.383 0.436 0.409
JPM JPMorgan Chase financials 2026-08-26 0.3959 +12.0% 0.3462 0.4457 0.3959 0.383 0.454 0.418
AOS A. O. Smith industrials 2026-08-26 0.3932 +12.0% 0.3974 0.3891 0.3932 0.383 0.512 0.447
NUE Nucor materials 2026-08-26 0.3928 +12.7% 0.2745 0.5112 0.3928 0.383 0.471 0.427
USB U.S. Bancorp financials 2026-08-26 0.3925 +12.0% 0.3000 0.4849 0.3925 0.383 0.454 0.418
DVN Devon Energy energy 2026-08-26 0.3919 +13.6% 0.3552 0.4286 0.3919 0.383 0.431 0.407
SLB Schlumberger energy 2026-08-26 0.3908 +13.2% 0.3767 0.4049 0.3908 0.383 0.431 0.407
ALGN Align Technology health_care 2026-08-26 0.3901 +12.8% 0.3469 0.4332 0.3901 0.383 0.436 0.409
AMP Ameriprise Financial financials 2026-08-26 0.3899 +12.1% 0.2891 0.4908 0.3899 0.383 0.454 0.418
HIG Hartford (The) financials 2026-08-26 0.3899 +12.0% 0.2891 0.4908 0.3899 0.383 0.454 0.418
SCHW Charles Schwab Corporation financials 2026-08-26 0.3899 +12.0% 0.2891 0.4908 0.3899 0.383 0.454 0.418
STT State Street Corporation financials 2026-08-26 0.3899 +12.0% 0.2891 0.4908 0.3899 0.383 0.454 0.418
TRMB Trimble Inc. information_technology 2026-08-26 0.3897 +12.1% 0.3868 0.3926 0.3897 0.383 0.315 0.349
VRSN Verisign information_technology 2026-08-26 0.3897 +12.1% 0.3868 0.3926 0.3897 0.383 0.315 0.349
CMS CMS Energy utilities 2026-08-26 0.3888 +12.0% 0.2869 0.4907 0.3888 0.383 0.402 0.392
CNP CenterPoint Energy utilities 2026-08-26 0.3888 +11.8% 0.2869 0.4907 0.3888 0.383 0.402 0.392
EXC Exelon utilities 2026-08-26 0.3888 +11.9% 0.2869 0.4907 0.3888 0.383 0.402 0.392
SRE Sempra utilities 2026-08-26 0.3888 +12.0% 0.2869 0.4907 0.3888 0.383 0.402 0.392
WEC WEC Energy Group utilities 2026-08-26 0.3888 +12.0% 0.2869 0.4907 0.3888 0.383 0.402 0.392
HON Honeywell Technologies industrials 2026-08-26 0.3888 +12.5% 0.3974 0.3802 0.3888 0.383 0.512 0.447
JBHT J.B. Hunt industrials 2026-08-26 0.3880 +12.2% 0.3353 0.4408 0.3880 0.383 0.512 0.447
TXT Textron industrials 2026-08-26 0.3880 +12.0% 0.3353 0.4408 0.3880 0.383 0.512 0.447
WAB Wabtec industrials 2026-08-26 0.3880 +12.2% 0.3353 0.4408 0.3880 0.383 0.512 0.447
ETR Entergy utilities 2026-08-26 0.3869 +12.0% 0.3675 0.4062 0.3869 0.383 0.402 0.392
XEL Xcel Energy utilities 2026-08-26 0.3869 +12.0% 0.3675 0.4062 0.3869 0.383 0.402 0.392
BA Boeing industrials 2026-08-26 0.3866 +13.4% 0.3840 0.3891 0.3866 0.383 0.512 0.447
DD DuPont industrials 2026-08-26 0.3866 +12.0% 0.3840 0.3891 0.3866 0.383 0.512 0.447
LUV Southwest Airlines industrials 2026-08-26 0.3860 +12.5% 0.3599 0.4120 0.3860 0.383 0.512 0.447
CF CF Industries materials 2026-08-26 0.3849 +12.7% 0.2111 0.5587 0.3849 0.383 0.471 0.427
FERG Ferguson Enterprises industrials 2026-08-26 0.3845 +12.2% 0.3974 0.3715 0.3845 0.383 0.512 0.447
GWW W. W. Grainger industrials 2026-08-26 0.3845 +12.2% 0.3974 0.3715 0.3845 0.383 0.512 0.447
BKR Baker Hughes energy 2026-08-26 0.3801 +12.3% 0.3552 0.4049 0.3801 0.383 0.431 0.407
EQT EQT Corporation energy 2026-08-26 0.3801 +12.3% 0.3552 0.4049 0.3801 0.383 0.431 0.407
EXE Expand Energy energy 2026-08-26 0.3801 +12.2% 0.3552 0.4049 0.3801 0.383 0.431 0.407
KMI Kinder Morgan energy 2026-08-26 0.3801 +12.0% 0.3552 0.4049 0.3801 0.383 0.431 0.407
OKE Oneok energy 2026-08-26 0.3801 +12.2% 0.3552 0.4049 0.3801 0.383 0.431 0.407
MMM 3M industrials 2026-08-26 0.3799 +12.3% 0.3191 0.4408 0.3799 0.383 0.512 0.447
FCX Freeport-McMoRan materials 2026-08-26 0.3712 +15.2% 0.2313 0.5112 0.3712 0.383 0.471 0.427
PKG Packaging Corporation of America materials 2026-08-26 0.3712 +11.9% 0.2313 0.5112 0.3712 0.383 0.471 0.427
SWK Stanley Black & Decker industrials 2026-08-26 0.3691 +12.5% 0.3729 0.3654 0.3691 0.383 0.512 0.447
VTRS Viatris health_care 2026-08-26 0.3688 +12.3% 0.3783 0.3594 0.3688 0.383 0.436 0.409
BLK BlackRock financials 2026-08-26 0.3674 +12.1% 0.2891 0.4457 0.3674 0.383 0.454 0.418
C Citigroup financials 2026-08-26 0.3674 +12.0% 0.2891 0.4457 0.3674 0.383 0.454 0.418
CME CME Group financials 2026-08-26 0.3674 +12.0% 0.2891 0.4457 0.3674 0.383 0.454 0.418
GL Globe Life financials 2026-08-26 0.3674 +11.9% 0.2891 0.4457 0.3674 0.383 0.454 0.418
GPN Global Payments financials 2026-08-26 0.3674 +12.6% 0.2891 0.4457 0.3674 0.383 0.454 0.418
IVZ Invesco financials 2026-08-26 0.3674 +12.4% 0.2891 0.4457 0.3674 0.383 0.454 0.418
MA Mastercard financials 2026-08-26 0.3674 +12.1% 0.2891 0.4457 0.3674 0.383 0.454 0.418
MET MetLife financials 2026-08-26 0.3674 +12.0% 0.2891 0.4457 0.3674 0.383 0.454 0.418
NDAQ Nasdaq, Inc. financials 2026-08-26 0.3674 +12.0% 0.2891 0.4457 0.3674 0.383 0.454 0.418
PYPL PayPal financials 2026-08-26 0.3674 +12.8% 0.2891 0.4457 0.3674 0.383 0.454 0.418
TRV Travelers Companies (The) financials 2026-08-26 0.3674 +12.0% 0.2891 0.4457 0.3674 0.383 0.454 0.418
V Visa Inc. financials 2026-08-26 0.3674 +12.0% 0.2891 0.4457 0.3674 0.383 0.454 0.418
WTW Willis Towers Watson financials 2026-08-26 0.3674 +12.2% 0.2891 0.4457 0.3674 0.383 0.454 0.418
ALLE Allegion industrials 2026-08-26 0.3659 +12.1% 0.3213 0.4105 0.3659 0.383 0.512 0.447
NOC Northrop Grumman industrials 2026-08-26 0.3657 +12.0% 0.3599 0.3715 0.3657 0.383 0.512 0.447
D Dominion Energy utilities 2026-08-26 0.3638 +12.0% 0.3213 0.4062 0.3638 0.383 0.402 0.392
DUK Duke Energy utilities 2026-08-26 0.3638 +12.0% 0.3213 0.4062 0.3638 0.383 0.402 0.392
ED Consolidated Edison utilities 2026-08-26 0.3638 +12.0% 0.3213 0.4062 0.3638 0.383 0.402 0.392
NEE NextEra Energy utilities 2026-08-26 0.3638 +12.1% 0.3213 0.4062 0.3638 0.383 0.402 0.392
EOG EOG Resources energy 2026-08-26 0.3633 +12.4% 0.3216 0.4049 0.3633 0.383 0.431 0.407
AMCR Amcor materials 2026-08-26 0.3611 +11.9% 0.2111 0.5112 0.3611 0.383 0.471 0.427
EW Edwards Lifesciences health_care 2026-08-26 0.3608 +12.0% 0.3621 0.3594 0.3608 0.383 0.436 0.409
MPC Marathon Petroleum energy 2026-08-26 0.3582 +13.0% 0.3552 0.3611 0.3582 0.383 0.431 0.407
VLO Valero Energy energy 2026-08-26 0.3582 +12.6% 0.3552 0.3611 0.3582 0.383 0.431 0.407
EIX Edison International utilities 2026-08-26 0.3572 +12.1% 0.3081 0.4062 0.3572 0.383 0.402 0.392
BR Broadridge Financial Solutions industrials 2026-08-26 0.3534 +12.5% 0.3353 0.3715 0.3534 0.383 0.512 0.447
RTX RTX Corporation industrials 2026-08-26 0.3534 +12.0% 0.3353 0.3715 0.3534 0.383 0.512 0.447
MOS Mosaic Company (The) materials 2026-08-26 0.3532 +13.5% 0.1953 0.5112 0.3532 0.383 0.471 0.427
DTE DTE Energy utilities 2026-08-26 0.3525 +12.0% 0.2144 0.4907 0.3525 0.383 0.402 0.392
BEN Franklin Resources financials 2026-08-26 0.3515 +11.9% 0.2891 0.4138 0.3515 0.383 0.454 0.418
EVRG Evergy utilities 2026-08-26 0.3499 +12.0% 0.2937 0.4062 0.3499 0.383 0.402 0.392
FE FirstEnergy utilities 2026-08-26 0.3499 +12.0% 0.2937 0.4062 0.3499 0.383 0.402 0.392
PPL PPL Corporation utilities 2026-08-26 0.3499 +12.0% 0.2937 0.4062 0.3499 0.383 0.402 0.392
RMD ResMed| health_care 2026-08-26 0.3486 +12.8% 0.3836 0.3136 0.3486 0.383 0.436 0.409
AEE Ameren utilities 2026-08-26 0.3466 +12.0% 0.2869 0.4062 0.3466 0.383 0.402 0.392
ATO Atmos Energy utilities 2026-08-26 0.3466 +12.0% 0.2869 0.4062 0.3466 0.383 0.402 0.392
ES Eversource Energy utilities 2026-08-26 0.3466 +12.0% 0.2869 0.4062 0.3466 0.383 0.402 0.392
PCG PG&E Corporation utilities 2026-08-26 0.3466 +12.0% 0.2869 0.4062 0.3466 0.383 0.402 0.392
PCAR Paccar industrials 2026-08-26 0.3453 +12.1% 0.3191 0.3715 0.3453 0.383 0.512 0.447
WM Waste Management industrials 2026-08-26 0.3433 +12.0% 0.3213 0.3654 0.3433 0.383 0.512 0.447
J Jacobs Solutions industrials 2026-08-26 0.3422 +12.1% 0.3191 0.3654 0.3422 0.383 0.512 0.447
FDS FactSet financials 2026-08-26 0.3393 +14.5% 0.3841 0.2944 0.3393 0.383 0.454 0.418
CL Colgate-Palmolive consumer_staples 2026-08-26 0.3367 +12.0% 0.2431 0.4304 0.3367 0.383 0.393 0.388
STZ Constellation Brands consumer_staples 2026-08-26 0.3367 +12.0% 0.2431 0.4304 0.3367 0.383 0.393 0.388
GEHC GE HealthCare health_care 2026-08-26 0.3349 +12.5% 0.3621 0.3077 0.3349 0.383 0.436 0.409
PFE Pfizer health_care 2026-08-26 0.3348 +12.0% 0.3469 0.3228 0.3348 0.383 0.436 0.409
APA APA Corporation energy 2026-08-26 0.3335 +12.8% 0.2621 0.4049 0.3335 0.383 0.431 0.407
TSN Tyson Foods consumer_staples 2026-08-26 0.3320 +12.0% 0.4449 0.2191 0.3320 0.383 0.393 0.388
MTD Mettler Toledo health_care 2026-08-26 0.3303 +12.2% 0.3469 0.3136 0.3303 0.383 0.436 0.409
JKHY Jack Henry & Associates financials 2026-08-26 0.3292 +12.2% 0.2891 0.3692 0.3292 0.383 0.454 0.418
BAX Baxter International health_care 2026-08-26 0.3273 +13.2% 0.3469 0.3077 0.3273 0.383 0.436 0.409
VEEV Veeva Systems health_care 2026-08-26 0.3270 +13.2% 0.3783 0.2758 0.3270 0.383 0.436 0.409
LYB LyondellBasell materials 2026-08-26 0.3256 +12.2% 0.2111 0.4401 0.3256 0.383 0.471 0.427
ADP Automatic Data Processing industrials 2026-08-26 0.3248 +12.1% 0.3213 0.3284 0.3248 0.383 0.512 0.447
FAST Fastenal industrials 2026-08-26 0.3248 +12.0% 0.3213 0.3284 0.3248 0.383 0.512 0.447
PM Philip Morris International consumer_staples 2026-08-26 0.3246 +12.0% 0.2526 0.3966 0.3246 0.383 0.393 0.388
FTV Fortive industrials 2026-08-26 0.3237 +11.9% 0.3191 0.3284 0.3237 0.383 0.512 0.447
OTIS Otis Worldwide industrials 2026-08-26 0.3237 +11.9% 0.3191 0.3284 0.3237 0.383 0.512 0.447
RSG Republic Services industrials 2026-08-26 0.3224 +11.9% 0.3599 0.2848 0.3224 0.383 0.512 0.447
PSX Phillips 66 energy 2026-08-26 0.3216 +12.7% 0.3552 0.2880 0.3216 0.383 0.431 0.407
WST West Pharmaceutical Services health_care 2026-08-26 0.3208 +11.9% 0.3469 0.2946 0.3208 0.383 0.436 0.409
VZ Verizon communication_services 2026-08-26 0.3205 +11.9% 0.0000 0.6410 0.3205 0.383 0.203 0.293
ABBV AbbVie health_care 2026-08-26 0.3190 +12.2% 0.3621 0.2758 0.3190 0.383 0.436 0.409
ELV Elevance Health health_care 2026-08-26 0.3190 +12.5% 0.3621 0.2758 0.3190 0.383 0.436 0.409
MRNA Moderna health_care 2026-08-26 0.3190 +14.7% 0.3621 0.2758 0.3190 0.383 0.436 0.409
DXCM Dexcom health_care 2026-08-26 0.3189 +12.6% 0.2047 0.4332 0.3189 0.383 0.436 0.409
CTVA Corteva materials 2026-08-26 0.3177 +12.1% 0.1953 0.4401 0.3177 0.383 0.471 0.427
VLTO Veralto industrials 2026-08-26 0.3149 +12.0% 0.3191 0.3107 0.3149 0.383 0.512 0.447
IDXX Idexx Laboratories health_care 2026-08-26 0.3128 +12.0% 0.3029 0.3228 0.3128 0.383 0.436 0.409
DOV Dover Corporation industrials 2026-08-26 0.3120 +12.0% 0.2348 0.3891 0.3120 0.383 0.512 0.447
AWK American Water Works utilities 2026-08-26 0.3103 +11.9% 0.2144 0.4062 0.3103 0.383 0.402 0.392
TDY Teledyne Technologies information_technology 2026-08-26 0.3053 +11.8% 0.3868 0.2239 0.3053 0.383 0.315 0.349
OXY Occidental Petroleum energy 2026-08-26 0.3048 +12.6% 0.3216 0.2880 0.3048 0.383 0.431 0.407
ADM Archer Daniels Midland consumer_staples 2026-08-26 0.3043 +11.9% 0.2119 0.3966 0.3043 0.383 0.393 0.388
DG Dollar General consumer_staples 2026-08-26 0.3043 +12.1% 0.2119 0.3966 0.3043 0.383 0.393 0.388
MKC McCormick & Company consumer_staples 2026-08-26 0.3043 +12.0% 0.2119 0.3966 0.3043 0.383 0.393 0.388
GIS General Mills consumer_staples 2026-08-26 0.2991 +13.2% 0.2862 0.3121 0.2991 0.383 0.393 0.388
MRSH Marsh McLennan financials 2026-08-26 0.2918 +12.0% 0.2891 0.2944 0.2918 0.383 0.454 0.418
NTRS Northern Trust financials 2026-08-26 0.2918 +11.9% 0.2891 0.2944 0.2918 0.383 0.454 0.418
PRU Prudential Financial financials 2026-08-26 0.2918 +12.0% 0.2891 0.2944 0.2918 0.383 0.454 0.418
DE Deere & Company industrials 2026-08-26 0.2911 +12.6% 0.3599 0.2222 0.2911 0.383 0.512 0.447
REGN Regeneron Pharmaceuticals health_care 2026-08-26 0.2894 +12.3% 0.3029 0.2758 0.2894 0.383 0.436 0.409
GD General Dynamics industrials 2026-08-26 0.2841 +11.9% 0.2833 0.2848 0.2841 0.383 0.512 0.447
LIN Linde plc materials 2026-08-26 0.2840 +12.0% 0.5263 0.0417 0.2840 0.383 0.471 0.427
CSGP CoStar Group real_estate 2026-08-26 0.2757 +14.0% 0.2872 0.2642 0.2757 0.383 0.406 0.395
IRM Iron Mountain real_estate 2026-08-26 0.2757 +12.6% 0.2872 0.2642 0.2757 0.383 0.406 0.395
EG Everest Group financials 2026-08-26 0.2694 +11.9% 0.2891 0.2497 0.2694 0.383 0.454 0.418
TROW T. Rowe Price financials 2026-08-26 0.2694 +11.9% 0.2891 0.2497 0.2694 0.383 0.454 0.418
BMY Bristol Myers Squibb health_care 2026-08-26 0.2677 +12.0% 0.2597 0.2758 0.2677 0.383 0.436 0.409
SOLV Solventum health_care 2026-08-26 0.2658 +12.2% 0.3783 0.1534 0.2658 0.383 0.436 0.409
IQV IQVIA health_care 2026-08-26 0.2578 +12.9% 0.3621 0.1534 0.2578 0.383 0.436 0.409
EMR Emerson Electric industrials 2026-08-26 0.2576 +12.0% 0.2348 0.2803 0.2576 0.383 0.512 0.447
XOM ExxonMobil energy 2026-08-26 0.2567 +12.3% 0.2500 0.2634 0.2567 0.383 0.431 0.407
DHR Danaher Corporation health_care 2026-08-26 0.2525 +12.7% 0.2292 0.2758 0.2525 0.383 0.436 0.409
AME Ametek industrials 2026-08-26 0.2493 +11.9% 0.3191 0.1795 0.2493 0.383 0.512 0.447
SNA Snap-on industrials 2026-08-26 0.2493 +11.9% 0.3191 0.1795 0.2493 0.383 0.512 0.447
CCI Crown Castle real_estate 2026-08-26 0.2483 +12.2% 0.2325 0.2642 0.2483 0.383 0.406 0.395
DLR Digital Realty real_estate 2026-08-26 0.2483 +12.2% 0.2325 0.2642 0.2483 0.383 0.406 0.395
KIM Kimco Realty real_estate 2026-08-26 0.2483 +12.0% 0.2325 0.2642 0.2483 0.383 0.406 0.395
VMRK Vivmark Residential real_estate 2026-08-26 0.2483 +12.0% 0.2325 0.2642 0.2483 0.383 0.406 0.395
PAYX Paychex industrials 2026-08-26 0.2443 +12.0% 0.2348 0.2538 0.2443 0.383 0.512 0.447
COP ConocoPhillips energy 2026-08-26 0.2409 +12.3% 0.3216 0.1601 0.2409 0.383 0.431 0.407
O Realty Income real_estate 2026-08-26 0.2408 +12.0% 0.2174 0.2642 0.2408 0.383 0.406 0.395
COO Cooper Companies (The) health_care 2026-08-26 0.2402 +11.9% 0.2047 0.2758 0.2402 0.383 0.436 0.409
STE Steris health_care 2026-08-26 0.2402 +12.0% 0.2047 0.2758 0.2402 0.383 0.436 0.409
AMT American Tower real_estate 2026-08-26 0.2391 +12.0% 0.2139 0.2642 0.2391 0.383 0.406 0.395
BXP BXP, Inc. real_estate 2026-08-26 0.2391 +12.2% 0.2139 0.2642 0.2391 0.383 0.406 0.395
CBRE CBRE Group real_estate 2026-08-26 0.2391 +12.4% 0.2139 0.2642 0.2391 0.383 0.406 0.395
CPT Camden Property Trust real_estate 2026-08-26 0.2391 +12.0% 0.2139 0.2642 0.2391 0.383 0.406 0.395
DOC Healthpeak Properties real_estate 2026-08-26 0.2391 +12.0% 0.2139 0.2642 0.2391 0.383 0.406 0.395
EQIX Equinix real_estate 2026-08-26 0.2391 +12.1% 0.2139 0.2642 0.2391 0.383 0.406 0.395
ESS Essex Property Trust real_estate 2026-08-26 0.2391 +12.0% 0.2139 0.2642 0.2391 0.383 0.406 0.395
EXR Extra Space Storage real_estate 2026-08-26 0.2391 +12.0% 0.2139 0.2642 0.2391 0.383 0.406 0.395
FRT Federal Realty Investment Trust real_estate 2026-08-26 0.2391 +12.0% 0.2139 0.2642 0.2391 0.383 0.406 0.395
MAA Mid-America Apartment Communities real_estate 2026-08-26 0.2391 +12.0% 0.2139 0.2642 0.2391 0.383 0.406 0.395
PLD Prologis real_estate 2026-08-26 0.2391 +12.0% 0.2139 0.2642 0.2391 0.383 0.406 0.395
PSA Public Storage real_estate 2026-08-26 0.2391 +12.1% 0.2139 0.2642 0.2391 0.383 0.406 0.395
REG Regency Centers real_estate 2026-08-26 0.2391 +12.0% 0.2139 0.2642 0.2391 0.383 0.406 0.395
SBAC SBA Communications real_estate 2026-08-26 0.2391 +12.3% 0.2139 0.2642 0.2391 0.383 0.406 0.395
SPG Simon Property Group real_estate 2026-08-26 0.2391 +12.1% 0.2139 0.2642 0.2391 0.383 0.406 0.395
UDR UDR, Inc. real_estate 2026-08-26 0.2391 +12.0% 0.2139 0.2642 0.2391 0.383 0.406 0.395
VICI Vici Properties real_estate 2026-08-26 0.2391 +12.0% 0.2139 0.2642 0.2391 0.383 0.406 0.395
VTR Ventas real_estate 2026-08-26 0.2391 +12.2% 0.2139 0.2642 0.2391 0.383 0.406 0.395
WELL Welltower real_estate 2026-08-26 0.2391 +12.0% 0.2139 0.2642 0.2391 0.383 0.406 0.395
WY Weyerhaeuser real_estate 2026-08-26 0.2391 +12.1% 0.2139 0.2642 0.2391 0.383 0.406 0.395
ARE Alexandria Real Estate Equities real_estate 2026-08-26 0.2342 +12.5% 0.2041 0.2642 0.2342 0.383 0.406 0.395
HUM Humana health_care 2026-08-26 0.2309 +12.5% 0.2047 0.2571 0.2309 0.383 0.436 0.409
ROP Roper Technologies information_technology 2026-08-26 0.2204 +11.9% 0.2170 0.2239 0.2204 0.383 0.315 0.349
DLTR Dollar Tree consumer_staples 2026-08-26 0.2155 +12.2% 0.2119 0.2191 0.2155 0.383 0.393 0.388
ABT Abbott Laboratories health_care 2026-08-26 0.2129 +12.1% 0.1500 0.2758 0.2129 0.383 0.436 0.409
NDSN Nordson Corporation industrials 2026-08-26 0.2072 +12.1% 0.2348 0.1795 0.2072 0.383 0.512 0.447
NSC Norfolk Southern industrials 2026-08-26 0.2072 +12.1% 0.2348 0.1795 0.2072 0.383 0.512 0.447
UPS United Parcel Service industrials 2026-08-26 0.2072 +11.8% 0.2348 0.1795 0.2072 0.383 0.512 0.447
APD Air Products materials 2026-08-26 0.2049 +12.0% 0.1953 0.2145 0.2049 0.383 0.471 0.427
WYNN Wynn Resorts consumer_discretionary 2026-08-26 0.2037 +12.0% 0.4073 0.0000 0.2037 0.383 0.458 0.421
HRL Hormel Foods consumer_staples 2026-08-26 0.1997 +12.0% 0.2431 0.1562 0.1997 0.383 0.393 0.388
VRTX Vertex Pharmaceuticals health_care 2026-08-26 0.1954 +12.5% 0.2047 0.1860 0.1954 0.383 0.436 0.409
CVX Chevron Corporation energy 2026-08-26 0.1945 +12.0% 0.2288 0.1601 0.1945 0.383 0.431 0.407
CRL Charles River Laboratories health_care 2026-08-26 0.1913 +13.6% 0.2292 0.1534 0.1913 0.383 0.436 0.409
INCY Incyte health_care 2026-08-26 0.1913 +12.5% 0.2292 0.1534 0.1913 0.383 0.436 0.409
MRK Merck & Co. health_care 2026-08-26 0.1913 +13.4% 0.2292 0.1534 0.1913 0.383 0.436 0.409
CLX Clorox consumer_staples 2026-08-26 0.1868 +12.0% 0.2431 0.1304 0.1868 0.383 0.393 0.388
CSX CSX Corporation industrials 2026-08-26 0.1835 +11.9% 0.2348 0.1322 0.1835 0.383 0.512 0.447
TGT Target Corporation consumer_staples 2026-08-26 0.1827 +12.0% 0.2119 0.1534 0.1827 0.383 0.393 0.388
ECL Ecolab materials 2026-08-26 0.1805 +11.9% 0.2111 0.1500 0.1805 0.383 0.471 0.427
AMGN Amgen health_care 2026-08-26 0.1791 +12.1% 0.2047 0.1534 0.1791 0.383 0.436 0.409
BIIB Biogen health_care 2026-08-26 0.1791 +12.6% 0.2047 0.1534 0.1791 0.383 0.436 0.409
GILD Gilead Sciences health_care 2026-08-26 0.1791 +12.2% 0.2047 0.1534 0.1791 0.383 0.436 0.409
RVTY Revvity health_care 2026-08-26 0.1791 +12.4% 0.2047 0.1534 0.1791 0.383 0.436 0.409
TMO Thermo Fisher Scientific health_care 2026-08-26 0.1791 +12.1% 0.2047 0.1534 0.1791 0.383 0.436 0.409
WAT Waters Corporation health_care 2026-08-26 0.1791 +12.1% 0.2047 0.1534 0.1791 0.383 0.436 0.409
ZBH Zimmer Biomet health_care 2026-08-26 0.1791 +11.9% 0.2047 0.1534 0.1791 0.383 0.436 0.409
AES AES Corporation utilities 2026-08-26 0.1736 +12.0% 0.2869 0.0604 0.1736 0.383 0.402 0.392
KHC Kraft Heinz consumer_staples 2026-08-26 0.1667 +12.4% 0.2119 0.1215 0.1667 0.383 0.393 0.388
KVUE Kenvue consumer_staples 2026-08-26 0.1612 +12.0% 0.2431 0.0794 0.1612 0.383 0.393 0.388
TECH Bio-Techne health_care 2026-08-26 0.1568 +12.3% 0.0500 0.2636 0.1568 0.383 0.436 0.409
KDP Keurig Dr Pepper consumer_staples 2026-08-26 0.1555 +12.1% 0.2431 0.0679 0.1555 0.383 0.393 0.388
KMB Kimberly-Clark consumer_staples 2026-08-26 0.1511 +11.9% 0.2119 0.0903 0.1511 0.383 0.393 0.388
MDLZ Mondelez International consumer_staples 2026-08-26 0.1457 +11.9% 0.2119 0.0794 0.1457 0.383 0.393 0.388
HST Host Hotels & Resorts real_estate 2026-08-26 0.1403 +12.0% 0.2139 0.0667 0.1403 0.383 0.406 0.395
HSY Hershey Company (The) consumer_staples 2026-08-26 0.1372 +11.9% 0.1528 0.1215 0.1372 0.383 0.393 0.388
A Agilent Technologies health_care 2026-08-26 0.1367 +12.0% 0.1200 0.1534 0.1367 0.383 0.436 0.409
UNP Union Pacific Corporation industrials 2026-08-26 0.1347 +12.1% 0.2348 0.0345 0.1347 0.383 0.512 0.447
MNST Monster Beverage consumer_staples 2026-08-26 0.1343 +11.8% 0.1782 0.0903 0.1343 0.383 0.393 0.388
BALL Ball Corporation materials 2026-08-26 0.1339 +11.9% 0.1579 0.1099 0.1339 0.383 0.471 0.427
INVH Invitation Homes real_estate 2026-08-26 0.1321 +11.9% 0.0000 0.2642 0.1321 0.383 0.406 0.395
SBUX Starbucks consumer_discretionary 2026-08-26 0.1304 +11.9% 0.0000 0.2609 0.1304 0.383 0.458 0.421
SJM J.M. Smucker Company (The) consumer_staples 2026-08-26 0.1264 +12.4% 0.1528 0.1000 0.1264 0.383 0.393 0.388
IFF International Flavors & Fragrances materials 2026-08-26 0.1264 +12.3% 0.2111 0.0417 0.1264 0.383 0.471 0.427
PG Procter & Gamble consumer_staples 2026-08-26 0.1222 +11.9% 0.1140 0.1304 0.1222 0.383 0.393 0.388
EL Estée Lauder Companies (The) consumer_staples 2026-08-26 0.1178 +12.6% 0.1140 0.1215 0.1178 0.383 0.393 0.388
PEP PepsiCo consumer_staples 2026-08-26 0.1178 +11.8% 0.1140 0.1215 0.1178 0.383 0.393 0.388
ITW Illinois Tool Works industrials 2026-08-26 0.1174 +11.9% 0.2348 0.0000 0.1174 0.383 0.512 0.447
EXPD Expeditors International industrials 2026-08-26 0.1111 +12.0% 0.0000 0.2222 0.1111 0.383 0.512 0.447
IEX IDEX Corporation industrials 2026-08-26 0.1107 +11.9% 0.2214 0.0000 0.1107 0.383 0.512 0.447
DGX Quest Diagnostics health_care 2026-08-26 0.0985 +12.1% 0.0435 0.1534 0.0985 0.383 0.436 0.409
LH Labcorp health_care 2026-08-26 0.0985 +12.0% 0.0435 0.1534 0.0985 0.383 0.436 0.409
MDT Medtronic health_care 2026-08-26 0.0985 +11.8% 0.0435 0.1534 0.0985 0.383 0.436 0.409
SYY Sysco consumer_staples 2026-08-26 0.0909 +11.8% 0.1140 0.0679 0.0909 0.383 0.393 0.388
BDX Becton Dickinson health_care 2026-08-26 0.0767 +11.9% 0.0000 0.1534 0.0767 0.383 0.436 0.409
HSIC Henry Schein health_care 2026-08-26 0.0767 +11.8% 0.0000 0.1534 0.0767 0.383 0.436 0.409
JNJ Johnson & Johnson health_care 2026-08-26 0.0767 +12.0% 0.0000 0.1534 0.0767 0.383 0.436 0.409
AVY Avery Dennison materials 2026-08-26 0.0525 +12.0% 0.0633 0.0417 0.0525 0.383 0.471 0.427
KO Coca-Cola Company (The) consumer_staples 2026-08-26 0.0397 +11.9% 0.0000 0.0794 0.0397 0.383 0.393 0.388
PPG PPG Industries materials 2026-08-26 0.0208 +11.8% 0.0000 0.0417 0.0208 0.383 0.471 0.427
CHD Church & Dwight consumer_staples 2026-08-26 0.0000 +11.9% 0.0000 0.0000 0.0000 0.383 0.393 0.388